map of BJM home
BJM - Airport
Location
City:  Bujumbura, Burundi
Name:Bujumbura International Airport
ICAO:HBBA
IATA:BJM

Details
Type:Airport (Aerodrome, Airfield)
Use:Public/Civil, International (customs port of entry)
Latitude:319'26"S (-3.324018)
Longitude:2919'07"E (29.318519)
Datum:WGS 1984
Elevation:2582 ft (787 m)
Variation:0.97E (WMM2015 magnetic declination)
0.08 annual change
Runways:1
Longest:11811 × 148 ft (3600 × 45 m), paved

Time
Time Zone:UTC+2
Local Time:

Weather
TAF:HBBA 210500Z 2106/2212 18010KT 9999 FEW028 BKN100
BECMG 2115/2117 18005KT 9999 FEW030 BKN100
BECMG 2120/2122 00000KT CAVOK
BECMG 2202/2204 36002KT 9999 FEW025 SCT100
BECMG 2207/2209 18010KT 9999 FEW028 SCT100

Related Locations
Nearby:
Farthest:CXI: 11980 mi / 19280 km
Christmas Island (Kiritimati) [Cassidy Intl], L, KI

Find:

   beyond  
but within

Other Information
Maps:
NOTAMs:
Links:
Sources:

  
  • flag of Burundi
  

Sectional Chart

Flight Planning
at skyvector.com

Satellite Image

Google Maps Satellite view

 

Copyright © 2004-2019 Karl L. Swartz. All rights reserved.
The Great Circle Mapper name and logo are trademarks of the Great Circle Mapper.
All other trademarks mentioned herein belong to their respective owners.
Please see credits for attibutions and further copyright information.

  Follow gcmap on Facebook Follow gcmap on Twitter Follow gcmap on Google+ GCmap on LinkedIn

hCard Microformat

Geo Microformat